createdAt,value
2022-08-12T00:00:33.270Z,24.70
2022-08-12T00:03:17.646Z,24.80
2022-08-12T00:06:05.595Z,24.80
2022-08-12T00:08:53.460Z,24.90
2022-08-12T00:11:36.379Z,24.80
2022-08-12T00:14:19.026Z,24.70
2022-08-12T00:17:02.433Z,24.60
2022-08-12T00:19:44.631Z,24.60
2022-08-12T00:22:27.689Z,24.60
2022-08-12T00:25:17.611Z,24.60
2022-08-12T00:28:00.844Z,24.50
2022-08-12T00:30:43.442Z,24.40
2022-08-12T00:33:26.365Z,24.50
2022-08-12T00:36:32.222Z,24.50
2022-08-12T00:39:19.200Z,24.40
2022-08-12T00:42:07.861Z,24.20
2022-08-12T00:44:38.245Z,24.20
2022-08-12T00:47:25.485Z,24.30
2022-08-12T00:49:57.639Z,24.10
2022-08-12T00:52:28.147Z,24.20
2022-08-12T00:55:01.088Z,24.20
2022-08-12T00:57:37.317Z,24.10
2022-08-12T01:00:11.429Z,24.10
2022-08-12T01:02:43.835Z,24.10
2022-08-12T01:05:28.275Z,24.10
2022-08-12T01:08:11.362Z,24.00
2022-08-12T01:10:56.677Z,24.00
2022-08-12T01:13:32.033Z,24.00
2022-08-12T01:16:04.401Z,23.90
2022-08-12T01:18:36.809Z,23.80
2022-08-12T01:21:17.019Z,23.90
2022-08-12T01:24:29.657Z,23.90
2022-08-12T01:27:07.483Z,23.80
2022-08-12T01:29:45.106Z,23.80
2022-08-12T01:32:15.868Z,23.80
2022-08-12T01:34:53.383Z,23.80
2022-08-12T01:37:27.466Z,23.70
2022-08-12T01:40:36.877Z,23.50
2022-08-12T01:42:54.861Z,23.60
2022-08-12T01:45:42.967Z,23.60
2022-08-12T01:48:22.931Z,23.50
2022-08-12T01:51:06.335Z,23.50
2022-08-12T01:53:50.930Z,23.50
2022-08-12T01:56:22.992Z,23.50
2022-08-12T01:59:12.668Z,23.40
2022-08-12T02:01:44.542Z,23.40
2022-08-12T02:04:38.504Z,23.50
2022-08-12T02:07:35.443Z,23.30
2022-08-12T02:10:50.971Z,23.20
2022-08-12T02:13:41.774Z,23.20
2022-08-12T02:16:24.554Z,23.10
2022-08-12T02:19:13.058Z,23.10
2022-08-12T02:22:01.735Z,23.00
2022-08-12T02:24:37.159Z,23.00
2022-08-12T02:27:09.558Z,22.90
2022-08-12T02:29:40.299Z,23.00
2022-08-12T02:32:13.532Z,23.00
2022-08-12T02:34:46.107Z,22.90
2022-08-12T02:37:18.424Z,23.60
2022-08-12T02:39:52.440Z,22.80
2022-08-12T02:42:25.665Z,22.80
2022-08-12T02:44:59.524Z,22.80
2022-08-12T02:48:00.148Z,22.60
2022-08-12T02:50:28.588Z,22.50
2022-08-12T02:53:00.070Z,22.40
2022-08-12T02:55:34.991Z,22.40
2022-08-12T02:58:11.918Z,22.30
2022-08-12T03:00:43.637Z,22.30
2022-08-12T03:03:18.319Z,22.20
2022-08-12T03:05:53.065Z,22.20
2022-08-12T03:08:31.695Z,22.10
2022-08-12T03:11:11.814Z,22.10
2022-08-12T03:13:49.648Z,22.20
2022-08-12T03:16:20.834Z,22.20
2022-08-12T03:18:54.872Z,22.10
2022-08-12T03:21:53.046Z,21.90
2022-08-12T03:24:17.789Z,21.90
2022-08-12T03:26:50.770Z,21.90
2022-08-12T03:29:22.513Z,21.90
2022-08-12T03:31:56.058Z,21.90
2022-08-12T03:34:34.152Z,21.90
2022-08-12T03:37:05.322Z,21.90
2022-08-12T03:39:42.016Z,21.90
2022-08-12T03:42:18.295Z,21.80
2022-08-12T03:45:10.207Z,21.90
2022-08-12T03:47:58.758Z,21.90
2022-08-12T03:50:45.366Z,21.80
2022-08-12T03:53:27.955Z,21.70
2022-08-12T03:56:11.446Z,21.60
2022-08-12T03:58:54.876Z,21.70
2022-08-12T04:01:25.725Z,21.70
2022-08-12T04:03:58.207Z,21.60
2022-08-12T04:06:35.205Z,21.50
2022-08-12T04:09:16.164Z,21.50
2022-08-12T04:12:03.383Z,21.40
2022-08-12T04:14:34.829Z,21.40
2022-08-12T04:17:05.823Z,21.40
2022-08-12T04:19:36.019Z,21.30
2022-08-12T04:22:09.658Z,21.30
2022-08-12T04:24:40.915Z,21.30
2022-08-12T04:27:13.729Z,21.40
2022-08-12T04:30:32.010Z,21.30
2022-08-12T04:32:37.688Z,21.30
2022-08-12T04:35:12.153Z,21.40
2022-08-12T04:37:58.607Z,21.30
2022-08-12T04:40:32.367Z,21.20
2022-08-12T04:43:03.921Z,21.20
2022-08-12T04:45:34.902Z,21.10
2022-08-12T04:48:05.270Z,21.10
2022-08-12T04:50:37.300Z,21.10
2022-08-12T04:53:13.639Z,21.10
2022-08-12T04:55:46.004Z,21.20
2022-08-12T04:58:16.229Z,21.10
2022-08-12T05:01:00.380Z,21.10
2022-08-12T05:03:46.312Z,21.20
2022-08-12T05:06:26.714Z,21.30
2022-08-12T05:09:00.886Z,21.30
2022-08-12T05:11:31.237Z,21.30
2022-08-12T05:14:03.326Z,21.20
2022-08-12T05:16:36.292Z,21.30
2022-08-12T05:19:12.890Z,21.40
2022-08-12T05:21:53.051Z,21.40
2022-08-12T05:24:25.845Z,21.40
2022-08-12T05:26:56.841Z,21.40
2022-08-12T05:30:08.315Z,21.40
2022-08-12T05:32:20.821Z,21.40
2022-08-12T05:34:51.286Z,21.60
2022-08-12T05:37:21.177Z,21.60
2022-08-12T05:39:54.062Z,21.70
2022-08-12T05:42:32.467Z,21.80
2022-08-12T05:45:04.924Z,21.90
2022-08-12T05:47:38.485Z,21.90
2022-08-12T05:50:23.781Z,21.90
2022-08-12T05:52:54.100Z,22.00
2022-08-12T05:55:31.186Z,22.00
2022-08-12T05:58:03.205Z,21.90
2022-08-12T06:00:33.746Z,22.00
2022-08-12T06:03:03.874Z,22.20
2022-08-12T06:05:52.694Z,22.20
2022-08-12T06:08:26.379Z,22.20
2022-08-12T06:10:59.539Z,22.40
2022-08-12T06:13:53.091Z,22.50
2022-08-12T06:16:20.432Z,22.50
2022-08-12T06:18:50.972Z,22.60
2022-08-12T06:21:23.624Z,22.70
2022-08-12T06:23:56.533Z,22.80
2022-08-12T06:26:29.318Z,22.80
2022-08-12T06:29:00.868Z,22.90
2022-08-12T06:31:31.248Z,23.00
2022-08-12T06:35:23.503Z,23.10
2022-08-12T06:36:58.740Z,23.10
2022-08-12T06:39:29.879Z,23.30
2022-08-12T06:42:42.198Z,23.40
2022-08-12T06:45:07.373Z,23.60
2022-08-12T06:47:40.617Z,23.70
2022-08-12T06:50:16.027Z,23.80
2022-08-12T06:52:46.472Z,24.00
2022-08-12T06:55:20.379Z,24.00
2022-08-12T06:58:07.733Z,24.10
2022-08-12T07:00:40.508Z,24.30
2022-08-12T07:03:16.479Z,24.30
2022-08-12T07:05:53.002Z,24.40
2022-08-12T07:08:23.947Z,24.50
2022-08-12T07:10:57.547Z,24.60
2022-08-12T07:13:32.658Z,24.60
2022-08-12T07:16:02.759Z,24.60
2022-08-12T07:18:33.257Z,24.70
2022-08-12T07:21:04.645Z,24.70
2022-08-12T07:23:36.404Z,24.80
2022-08-12T07:26:08.481Z,24.70
2022-08-12T07:28:44.251Z,24.70
2022-08-12T07:31:17.321Z,24.60
2022-08-12T07:33:50.052Z,24.70
2022-08-12T07:36:22.706Z,24.80
2022-08-12T07:38:52.936Z,25.00
2022-08-12T07:41:25.384Z,25.00
2022-08-12T07:44:06.255Z,25.10
2022-08-12T07:46:39.476Z,25.30
2022-08-12T07:49:12.883Z,25.40
2022-08-12T07:51:43.752Z,25.80
2022-08-12T07:54:17.248Z,25.70
2022-08-12T07:56:47.335Z,25.70
2022-08-12T07:59:20.177Z,25.70
2022-08-12T08:01:54.133Z,25.70
2022-08-12T08:04:36.835Z,25.80
2022-08-12T08:07:09.560Z,26.10
2022-08-12T08:09:40.199Z,26.40
2022-08-12T08:12:23.163Z,26.40
2022-08-12T08:14:58.843Z,26.60
2022-08-12T08:17:29.717Z,26.70
2022-08-12T08:20:02.575Z,26.80
2022-08-12T08:22:41.455Z,26.90
2022-08-12T08:25:34.618Z,27.10
2022-08-12T08:28:06.256Z,27.60
2022-08-12T08:30:42.656Z,28.20
2022-08-12T08:33:23.221Z,29.00
2022-08-12T08:35:57.102Z,29.80
2022-08-12T08:38:28.110Z,30.60
2022-08-12T08:42:17.784Z,31.60
2022-08-12T08:44:15.331Z,32.60
2022-08-12T08:46:49.577Z,33.30
2022-08-12T08:49:20.686Z,33.80
2022-08-12T08:51:51.366Z,33.90
2022-08-12T08:54:21.620Z,34.00
2022-08-12T08:56:54.661Z,34.30
2022-08-12T08:59:25.231Z,34.60
2022-08-12T09:01:58.537Z,34.80
2022-08-12T09:05:11.903Z,34.90
2022-08-12T09:07:51.957Z,34.90
2022-08-12T09:10:25.223Z,34.80
2022-08-12T09:13:16.242Z,34.80
2022-08-12T09:18:46.783Z,34.90
2022-08-12T09:21:16.878Z,35.20
2022-08-12T09:26:46.242Z,35.30
2022-08-12T09:29:20.414Z,35.50
2022-08-12T09:32:29.543Z,35.80
2022-08-12T09:35:03.424Z,35.90
2022-08-12T09:37:58.526Z,35.90
2022-08-12T09:41:01.866Z,35.90
2022-08-12T09:43:30.063Z,35.50
2022-08-12T09:46:20.200Z,36.00
2022-08-12T09:48:56.223Z,36.50
2022-08-12T09:51:38.193Z,36.60
2022-08-12T09:54:33.358Z,37.00
2022-08-12T09:58:46.029Z,37.30
2022-08-12T10:00:16.324Z,37.40
2022-08-12T10:03:32.188Z,37.30
2022-08-12T10:06:20.139Z,37.50
2022-08-12T10:08:55.479Z,37.40
2022-08-12T10:12:09.888Z,37.70
2022-08-12T10:14:34.876Z,37.90
2022-08-12T10:17:08.669Z,38.30
2022-08-12T10:19:40.291Z,38.30
2022-08-12T10:22:39.253Z,38.30
2022-08-12T10:26:18.233Z,37.90
2022-08-12T10:28:29.811Z,38.10
2022-08-12T10:31:01.260Z,37.80
2022-08-12T10:33:33.688Z,38.00
2022-08-12T10:36:36.146Z,38.20
2022-08-12T10:40:06.991Z,38.00
2022-08-12T10:42:18.341Z,37.60
2022-08-12T10:45:01.652Z,37.30
2022-08-12T10:48:01.692Z,36.70
2022-08-12T10:50:29.667Z,36.50
2022-08-12T10:53:10.888Z,37.00
2022-08-12T10:55:56.164Z,37.50
2022-08-12T10:58:31.818Z,37.40
2022-08-12T11:04:15.131Z,37.90
2022-08-12T11:04:25.450Z,38.20
2022-08-12T11:07:09.588Z,38.00
2022-08-12T11:09:42.021Z,37.70
2022-08-12T11:12:56.115Z,37.30
2022-08-12T11:15:32.847Z,37.00
2022-08-12T11:18:18.264Z,37.30
2022-08-12T11:20:52.136Z,37.30
2022-08-12T11:23:25.458Z,36.80
2022-08-12T11:26:08.668Z,36.90
2022-08-12T11:28:39.453Z,37.30
2022-08-12T11:31:14.521Z,37.10
2022-08-12T11:34:05.997Z,36.60
2022-08-12T11:36:39.437Z,36.40
2022-08-12T11:39:12.531Z,36.10
2022-08-12T11:41:43.014Z,35.70
2022-08-12T11:44:36.862Z,35.60
2022-08-12T11:47:09.648Z,35.60
2022-08-12T11:49:39.729Z,35.40
2022-08-12T11:52:27.912Z,35.00
2022-08-12T11:55:00.185Z,35.00
2022-08-12T11:58:42.265Z,35.00
2022-08-12T12:03:17.350Z,35.20
2022-08-12T12:05:47.667Z,35.30
2022-08-12T12:08:37.499Z,35.20
2022-08-12T12:11:12.134Z,35.20
2022-08-12T12:14:07.444Z,35.20
2022-08-12T12:16:33.305Z,35.00
2022-08-12T12:19:06.653Z,34.80
2022-08-12T12:21:47.903Z,34.80
2022-08-12T12:24:21.382Z,34.80
2022-08-12T12:27:00.690Z,34.50
2022-08-12T12:30:18.830Z,34.50
2022-08-12T12:32:29.188Z,34.40
2022-08-12T12:35:13.488Z,34.40
2022-08-12T12:38:05.447Z,34.20
2022-08-12T12:40:44.165Z,34.20
2022-08-12T12:43:15.191Z,34.20
2022-08-12T12:45:46.734Z,34.20
2022-08-12T12:48:18.758Z,34.00
2022-08-12T12:51:13.773Z,34.10
2022-08-12T12:54:07.902Z,34.00
2022-08-12T12:56:42.890Z,33.90
2022-08-12T12:59:35.000Z,33.70
2022-08-12T13:02:08.308Z,33.80
2022-08-12T13:04:39.903Z,33.90
2022-08-12T13:07:12.671Z,33.90
2022-08-12T13:09:46.782Z,34.00
2022-08-12T13:12:16.995Z,34.00
2022-08-12T13:14:51.621Z,34.00
2022-08-12T13:17:21.961Z,33.80
2022-08-12T13:19:55.113Z,33.40
2022-08-12T13:22:29.609Z,33.30
2022-08-12T13:24:59.999Z,33.30
2022-08-12T13:27:35.282Z,33.30
2022-08-12T13:30:12.072Z,33.10
2022-08-12T13:32:42.752Z,33.10
2022-08-12T13:35:19.817Z,32.90
2022-08-12T13:38:10.331Z,33.10
2022-08-12T13:40:41.970Z,33.20
2022-08-12T13:43:41.282Z,33.10
2022-08-12T13:46:12.432Z,33.10
2022-08-12T13:48:45.311Z,33.10
2022-08-12T13:51:24.516Z,33.20
2022-08-12T13:54:04.154Z,33.30
2022-08-12T13:56:38.500Z,33.40
2022-08-12T13:59:10.327Z,33.40
2022-08-12T14:01:42.007Z,33.30
2022-08-12T14:04:12.659Z,33.30
2022-08-12T14:06:43.497Z,33.20
2022-08-12T14:09:19.940Z,33.10
2022-08-12T14:11:59.119Z,33.10
2022-08-12T14:14:35.549Z,33.10
2022-08-12T14:17:10.601Z,33.10
2022-08-12T14:20:01.384Z,33.10
2022-08-12T14:22:32.284Z,33.10
2022-08-12T14:25:06.270Z,32.90
2022-08-12T14:28:02.598Z,32.80
2022-08-12T14:30:29.629Z,32.70
2022-08-12T14:33:03.379Z,32.60
2022-08-12T14:35:41.079Z,32.60
2022-08-12T14:38:24.211Z,32.40
2022-08-12T14:41:01.695Z,32.20
2022-08-12T14:43:59.017Z,32.30
2022-08-12T14:46:27.861Z,32.40
2022-08-12T14:48:58.853Z,32.50
2022-08-12T14:52:48.202Z,32.50
2022-08-12T14:57:56.661Z,32.50
2022-08-12T15:00:43.651Z,32.50
2022-08-12T15:03:16.567Z,32.50
2022-08-12T15:06:06.429Z,32.60
2022-08-12T15:08:40.249Z,32.50
2022-08-12T15:11:14.271Z,32.20
2022-08-12T15:13:50.519Z,32.10
2022-08-12T15:16:20.753Z,32.10
2022-08-12T15:18:55.484Z,32.30
2022-08-12T15:22:35.466Z,32.30
2022-08-12T15:24:20.483Z,32.40
2022-08-12T15:26:51.406Z,32.40
2022-08-12T15:29:26.347Z,32.20
2022-08-12T15:32:01.842Z,32.20
2022-08-12T15:34:38.893Z,32.30
2022-08-12T15:37:09.213Z,32.20
2022-08-12T15:39:39.469Z,32.10
2022-08-12T15:42:26.582Z,32.10
2022-08-12T15:44:59.348Z,32.10
2022-08-12T15:47:47.935Z,32.10
2022-08-12T15:50:23.161Z,32.10
2022-08-12T15:52:54.215Z,32.10
2022-08-12T15:55:24.982Z,32.10
2022-08-12T15:58:04.613Z,32.10
2022-08-12T16:00:39.821Z,32.00
2022-08-12T16:03:14.335Z,32.00
2022-08-12T16:06:11.987Z,32.00
2022-08-12T16:08:39.803Z,32.00
2022-08-12T16:11:15.358Z,32.00
2022-08-12T16:13:46.698Z,31.90
2022-08-12T16:16:23.607Z,32.00
2022-08-12T16:18:59.523Z,32.00
2022-08-12T16:21:51.620Z,32.00
2022-08-12T16:24:21.934Z,32.00
2022-08-12T16:26:54.350Z,32.00
2022-08-12T16:29:52.440Z,31.90
2022-08-12T16:32:31.843Z,31.90
2022-08-12T16:35:06.002Z,31.80
2022-08-12T16:38:24.858Z,31.70
2022-08-12T16:40:29.514Z,31.70
2022-08-12T16:43:02.473Z,31.70
2022-08-12T16:46:23.228Z,31.60
2022-08-12T16:48:38.525Z,31.60
2022-08-12T16:51:11.945Z,31.60
2022-08-12T16:53:45.564Z,31.60
2022-08-12T16:56:18.148Z,31.50
2022-08-12T16:58:52.267Z,31.50
2022-08-12T17:01:22.811Z,31.50
2022-08-12T17:04:09.229Z,31.50
2022-08-12T17:06:41.797Z,31.40
2022-08-12T17:09:17.765Z,31.40
2022-08-12T17:11:50.134Z,31.30
2022-08-12T17:14:24.679Z,31.30
2022-08-12T17:16:55.820Z,31.40
2022-08-12T17:20:29.089Z,31.40
2022-08-12T17:22:22.686Z,31.40
2022-08-12T17:25:02.567Z,31.40
2022-08-12T17:27:40.687Z,31.30
2022-08-12T17:30:13.485Z,30.60
2022-08-12T17:32:46.293Z,31.30
2022-08-12T17:35:37.029Z,31.20
2022-08-12T17:38:14.027Z,31.20
2022-08-12T17:40:46.619Z,31.20
2022-08-12T17:43:51.894Z,31.10
2022-08-12T17:46:12.994Z,31.10
2022-08-12T17:48:57.922Z,31.10
2022-08-12T17:51:49.811Z,31.00
2022-08-12T17:54:21.055Z,31.10
2022-08-12T17:56:53.930Z,31.00
2022-08-12T17:59:48.648Z,31.00
2022-08-12T18:02:25.543Z,30.90
2022-08-12T18:05:04.636Z,30.90
2022-08-12T18:07:39.578Z,30.90
2022-08-12T18:10:10.815Z,30.80
2022-08-12T18:12:40.277Z,30.80
2022-08-12T18:15:26.800Z,30.90
2022-08-12T18:18:17.223Z,30.90
2022-08-12T18:20:50.281Z,30.80
2022-08-12T18:23:23.621Z,30.70
2022-08-12T18:26:14.243Z,30.70
2022-08-12T18:28:48.824Z,30.60
2022-08-12T18:31:23.016Z,30.60
2022-08-12T18:33:54.886Z,30.70
2022-08-12T18:36:32.270Z,30.50
2022-08-12T18:39:05.368Z,30.50
2022-08-12T18:41:36.074Z,30.50
2022-08-12T18:44:09.429Z,30.40
2022-08-12T18:46:53.717Z,30.40
2022-08-12T18:49:33.413Z,30.30
2022-08-12T18:52:08.653Z,30.30
2022-08-12T18:54:49.344Z,30.30
2022-08-12T18:57:46.467Z,30.20
2022-08-12T19:00:21.261Z,30.20
2022-08-12T19:02:53.116Z,30.20
2022-08-12T19:05:54.291Z,30.20
2022-08-12T19:08:16.900Z,30.10
2022-08-12T19:10:51.178Z,30.10
2022-08-12T19:13:34.844Z,30.10
2022-08-12T19:16:12.777Z,30.10
2022-08-12T19:18:45.419Z,30.00
2022-08-12T19:21:20.194Z,29.90
2022-08-12T19:24:12.425Z,29.90
2022-08-12T19:26:43.368Z,29.80
2022-08-12T19:29:14.105Z,29.80
2022-08-12T19:31:57.733Z,29.80
2022-08-12T19:35:18.528Z,29.70
2022-08-12T19:37:26.672Z,29.60
2022-08-12T19:40:09.044Z,29.60
2022-08-12T19:42:48.320Z,29.50
2022-08-12T19:45:23.742Z,29.50
2022-08-12T19:48:17.475Z,29.40
2022-08-12T19:50:50.548Z,29.30
2022-08-12T19:53:24.125Z,29.30
2022-08-12T19:55:57.155Z,29.30
2022-08-12T19:58:30.339Z,29.30
2022-08-12T20:01:00.515Z,29.20
2022-08-12T20:03:39.592Z,29.20
2022-08-12T20:06:15.687Z,29.10
2022-08-12T20:08:55.914Z,29.10
2022-08-12T20:12:15.309Z,29.00
2022-08-12T20:14:21.728Z,28.90
2022-08-12T20:17:02.686Z,28.90
2022-08-12T20:20:04.082Z,28.90
2022-08-12T20:22:29.817Z,28.70
2022-08-12T20:25:09.177Z,28.60
2022-08-12T20:28:04.688Z,28.50
2022-08-12T20:30:53.346Z,28.50
2022-08-12T20:33:50.339Z,28.40
2022-08-12T20:36:41.574Z,28.30
2022-08-12T20:39:23.811Z,28.20
2022-08-12T20:42:07.061Z,28.20
2022-08-12T20:44:40.229Z,28.00
2022-08-12T20:47:19.723Z,27.90
2022-08-12T20:49:55.981Z,27.90
2022-08-12T20:52:45.279Z,28.00
2022-08-12T20:55:19.334Z,27.80
2022-08-12T20:58:02.755Z,27.70
2022-08-12T21:00:35.462Z,27.60
2022-08-12T21:03:20.464Z,27.60
2022-08-12T21:06:12.997Z,29.20
2022-08-12T21:08:44.388Z,27.60
2022-08-12T21:11:14.530Z,27.60
2022-08-12T21:13:44.312Z,27.50
2022-08-12T21:16:14.559Z,27.40
2022-08-12T21:18:50.597Z,27.40
2022-08-12T21:21:22.972Z,27.40
2022-08-12T21:23:56.567Z,27.30
2022-08-12T21:26:29.992Z,27.30
2022-08-12T21:29:01.569Z,27.30
2022-08-12T21:32:40.111Z,27.30
2022-08-12T21:34:29.691Z,27.20
2022-08-12T21:37:26.982Z,27.20
2022-08-12T21:39:56.536Z,27.20
2022-08-12T21:42:38.264Z,27.00
2022-08-12T21:45:48.129Z,26.90
2022-08-12T21:48:05.913Z,26.80
2022-08-12T21:50:41.480Z,26.70
2022-08-12T21:53:13.893Z,26.60
2022-08-12T21:55:47.480Z,26.60
2022-08-12T21:58:21.972Z,26.60
2022-08-12T22:00:53.438Z,26.60
2022-08-12T22:04:04.113Z,26.70
2022-08-12T22:06:42.900Z,26.60
2022-08-12T22:09:16.519Z,26.60
2022-08-12T22:11:58.725Z,26.60
2022-08-12T22:14:31.018Z,26.50
2022-08-12T22:17:05.243Z,26.40
2022-08-12T22:19:36.727Z,26.30
2022-08-12T22:22:09.460Z,26.30
2022-08-12T22:24:44.056Z,26.40
2022-08-12T22:27:28.171Z,26.30
2022-08-12T22:30:16.883Z,26.30
2022-08-12T22:32:54.912Z,26.30
2022-08-12T22:35:56.239Z,26.40
2022-08-12T22:38:29.390Z,26.40
2022-08-12T22:41:02.162Z,26.30
2022-08-12T22:44:00.686Z,26.40
2022-08-12T22:46:53.218Z,26.30
2022-08-12T22:49:36.349Z,26.20
2022-08-12T22:52:18.565Z,26.20
2022-08-12T22:55:03.225Z,26.10
2022-08-12T22:57:49.509Z,25.90
2022-08-12T23:00:27.815Z,25.80
2022-08-12T23:03:02.743Z,25.70
2022-08-12T23:05:56.704Z,25.60
2022-08-12T23:08:30.106Z,25.60
2022-08-12T23:11:06.001Z,25.60
2022-08-12T23:13:55.490Z,25.60
2022-08-12T23:16:33.760Z,25.60
2022-08-12T23:19:10.679Z,25.40
2022-08-12T23:22:05.825Z,25.40
2022-08-12T23:24:53.901Z,25.50
2022-08-12T23:27:51.262Z,25.40
2022-08-12T23:30:32.104Z,25.40
2022-08-12T23:33:19.949Z,25.30
2022-08-12T23:35:59.068Z,25.30
2022-08-12T23:38:34.660Z,25.20
2022-08-12T23:41:06.885Z,25.20
2022-08-12T23:43:42.839Z,25.10
2022-08-12T23:46:22.484Z,25.10
2022-08-12T23:49:00.950Z,25.00
2022-08-12T23:51:32.274Z,25.00
2022-08-12T23:54:09.371Z,25.00
2022-08-12T23:56:43.830Z,24.90
2022-08-12T23:59:16.854Z,24.90
